Latest Weather Observations for Lismore Airport

IDN60801

Issued at 6:35 am EST Thursday 28 August 2014 (issued every 30 minutes, with the page automatically refreshed every 10 minutes)

About weather observations | Map of weather stations | Latest weather observations for NSW | Other Formats
Station Details ID: 058214 Name: LISMORE AIRPORT AWS Lat: -28.83 Lon: 153.26 Height: 9.21 m
Data from the previous 72 hours. | See also: Recent months for locations in New South Wales
Date/Time
EST
Temp
°C
App
Temp
°C
Dew
Point
Rel
Hum
%
Delta-T
°C
Wind Press
QNH
hPa
Press
MSL
hPa
Rain
since 9 am
mm
Dir
 
Spd
km/h
Gust
km/h
Spd
kts
Gust
kts
28/06:30am 14.1 9.7 13.0 93 0.6 SW 28 37 15 20 1016.4 - 138.6
28/06:00am 14.0 10.4 13.1 94 0.5 SW 24 33 13 18 1016.0 1016.0 138.6
28/05:30am 14.1 10.2 13.3 95 0.4 SSW 26 33 14 18 1015.7 - 138.6
28/05:00am 14.1 9.4 13.3 95 0.4 SSW 30 39 16 21 1015.2 1015.2 138.6
28/04:30am 14.1 9.5 13.5 96 0.3 SW 30 37 16 20 1014.9 - 138.6
28/04:00am 14.1 10.4 13.9 99 0.1 SW 26 35 14 19 1014.7 1014.7 138.6
28/03:54am 14.1 10.4 13.9 99 0.1 SW 26 35 14 19 1014.7 - 138.6
28/03:30am 14.1 12.1 13.9 99 0.1 SW 17 24 9 13 1014.7 - 138.4
28/03:16am 14.1 11.7 13.9 99 0.1 SW 19 32 10 17 1014.8 - 138.2
28/03:15am 14.1 12.1 13.9 99 0.1 SW 17 32 9 17 1014.8 - 137.8
28/03:00am 14.0 11.0 13.8 99 0.1 SW 22 28 12 15 1014.8 1014.8 136.4
28/02:53am 14.0 11.4 13.8 99 0.1 SW 20 26 11 14 1014.6 - 136.2
28/02:31am 14.0 12.0 13.8 99 0.1 SSW 17 24 9 13 1015.3 - 134.4
28/02:30am 14.0 12.0 13.8 99 0.1 SSW 17 24 9 13 1015.3 - 134.2
28/02:23am 14.0 11.6 13.8 99 0.1 SSW 19 28 10 15 1015.1 - 132.8
28/02:17am 14.0 11.6 13.8 99 0.1 SSW 19 28 10 15 1015.1 - 132.4
28/02:00am 13.7 13.1 13.5 99 0.1 SW 9 15 5 8 1015.2 1015.2 130.0
28/01:30am 13.7 12.7 13.5 99 0.1 SW 11 24 6 13 1015.5 - 121.6
28/01:00am 13.6 12.2 13.4 99 0.1 WSW 13 19 7 10 1015.2 1015.2 109.8
28/12:48am 13.4 13.3 13.2 99 0.1 NNE 6 11 3 6 1015.6 - 104.8
28/12:33am 13.3 13.1 13.1 99 0.1 W 6 17 3 9 1015.5 - 100.6
28/12:30am 13.3 13.5 13.1 99 0.1 W 4 11 2 6 1015.7 - 99.8
28/12:00am 13.4 12.7 13.2 99 0.1 N 9 15 5 8 1015.9 1015.9 94.8
 
Date/Time
EST
Temp
°C
App
Temp
°C
Dew
Point
Rel
Hum
%
Delta-T
°C
Wind Press
QNH
hPa
Press
MSL
hPa
Rain
since 9 am
mm
Dir
 
Spd
km/h
Gust
km/h
Spd
kts
Gust
kts
27/11:47pm 13.4 12.7 13.2 99 0.1 NW 9 11 5 6 1015.9 - 93.4
27/11:45pm 13.4 12.7 13.2 99 0.1 NNW 9 15 5 8 1016.0 - 93.0
27/11:30pm 13.5 12.1 13.3 99 0.1 N 13 19 7 10 1016.0 - 92.0
27/11:22pm 13.7 13.1 13.5 99 0.1 NW 9 15 5 8 1015.9 - 89.2
27/11:05pm 13.6 12.6 13.4 99 0.1 SW 11 20 6 11 1015.9 - 87.0
27/11:00pm 13.6 11.4 13.4 99 0.1 SW 17 24 9 13 1015.7 1015.7 86.8
27/10:44pm 13.7 11.0 13.5 99 0.1 SW 20 28 11 15 1015.5 - 85.8
27/10:37pm 13.8 11.1 13.6 99 0.1 SW 20 28 11 15 1015.6 - 85.4
27/10:30pm 13.6 11.4 13.4 99 0.1 SW 17 24 9 13 1015.7 - 85.0
27/10:25pm 13.7 11.2 13.5 99 0.1 WSW 19 22 10 12 1015.7 - 84.6
27/10:00pm 14.0 13.8 13.7 98 0.2 ENE 7 11 4 6 1015.8 1015.8 82.2
27/09:39pm 13.9 11.8 13.7 99 0.1 SSE 17 24 9 13 1015.9 - 79.4
27/09:33pm 13.4 11.9 13.2 99 0.1 S 13 20 7 11 1015.9 - 77.8
27/09:30pm 13.2 12.1 13.0 99 0.1 S 11 17 6 9 1015.8 - 77.4
27/09:00pm 13.0 8.2 12.8 99 0.1 S 30 43 16 23 1015.3 1015.3 73.4
27/08:55pm 13.1 9.5 12.9 99 0.1 S 24 32 13 17 1015.2 - 72.6
27/08:52pm 13.1 9.8 12.9 99 0.1 S 22 28 12 15 1015.1 - 71.6
27/08:30pm 13.4 8.1 13.2 99 0.1 S 33 52 18 28 1014.5 - 69.4
27/08:29pm 13.5 8.5 13.3 99 0.1 S 32 52 17 28 1014.5 - 69.2
27/08:22pm 12.5 8.7 12.3 99 0.1 W 24 28 13 15 1014.7 - 67.0
27/08:00pm 12.3 8.8 12.1 99 0.1 NNW 22 28 12 15 1014.9 1014.9 60.8
27/07:34pm 12.5 7.8 11.9 96 0.3 N 28 41 15 22 1014.2 - 46.4
27/07:30pm 12.6 8.7 12.0 96 0.3 N 24 33 13 18 1014.5 - 44.8
27/07:24pm 12.5 8.2 11.9 96 0.3 N 26 37 14 20 1014.4 - 44.2
27/07:17pm 12.4 8.4 11.9 97 0.3 N 24 33 13 18 1014.5 - 44.2
27/07:00pm 12.3 5.9 12.0 98 0.2 NW 37 56 20 30 1013.6 1013.6 42.6
27/06:59pm 12.3 5.9 12.0 98 0.2 NW 37 56 20 30 1013.4 - 42.6
27/06:30pm 12.4 5.5 11.5 94 0.5 W 39 61 21 33 1013.4 - 36.2
27/06:26pm 12.4 5.1 11.5 94 0.5 W 41 59 22 32 1013.3 - 35.4
27/06:00pm 12.6 5.2 11.2 91 0.7 W 41 57 22 31 1014.0 1014.0 31.4
27/05:52pm 12.6 5.6 11.2 91 0.7 W 39 57 21 31 1014.0 - 30.4
27/05:30pm 12.6 6.4 11.5 93 0.6 W 35 50 19 27 1014.0 - 27.4
27/05:22pm 12.7 6.1 11.4 92 0.7 WSW 37 52 20 28 1014.1 - 26.4
27/05:12pm 12.5 5.9 11.4 93 0.6 WSW 37 56 20 30 1014.4 - 25.4
27/05:00pm 12.8 6.1 11.0 89 0.9 WSW 37 52 20 28 1014.4 1014.4 24.4
27/04:30pm 12.6 7.1 12.0 96 0.3 WSW 32 43 17 23 1014.7 - 21.8
27/04:00pm 12.8 7.3 12.0 95 0.4 WSW 32 48 17 26 1014.8 1014.8 19.4
27/03:55pm 12.8 7.7 11.9 94 0.5 WSW 30 48 16 26 1014.7 - 19.0
27/03:30pm 13.1 7.6 12.3 95 0.4 SW 33 46 18 25 1014.7 - 17.0
27/03:00pm 13.1 7.8 12.5 96 0.3 SW 32 43 17 23 1014.7 1014.7 15.4
27/02:30pm 13.4 9.3 12.8 96 0.3 SW 26 32 14 17 1015.2 - 13.4
27/02:13pm 13.5 8.0 12.6 94 0.5 SSW 33 43 18 23 1015.2 - 11.0
27/02:00pm 13.6 6.7 12.8 95 0.4 SSW 41 52 22 28 1014.9 1014.9 9.8
27/01:37pm 13.3 8.4 12.5 95 0.4 SSW 30 39 16 21 1015.5 - 7.2
27/01:30pm 13.2 9.0 12.3 94 0.5 SSW 26 39 14 21 1015.4 - 6.2
27/01:18pm 13.3 7.9 12.2 93 0.6 SSW 32 41 17 22 1015.6 - 5.0
27/01:00pm 13.2 5.8 12.3 94 0.5 S 43 56 23 30 1015.4 1015.4 3.4
27/12:56pm 13.2 5.2 12.4 95 0.4 S 46 61 25 33 1015.2 - 3.0
27/12:45pm 13.4 5.0 12.3 93 0.6 S 48 70 26 38 1014.8 - 1.6
27/12:43pm 13.6 5.7 12.7 94 0.5 S 46 59 25 32 1014.7 - 1.0
27/12:42pm 13.8 6.4 12.9 94 0.5 S 44 54 24 29 1014.8 - 0.8
27/12:30pm 14.6 11.3 12.8 89 1.0 SSW 22 28 12 15 1015.5 - 0.2
27/12:00pm 15.4 11.0 12.9 85 1.4 SW 28 35 15 19 1015.9 1015.9 0.0
27/11:58am 15.4 10.9 12.7 84 1.5 SW 28 37 15 20 1015.9 - 0.0
27/11:30am 16.1 12.7 12.5 79 2.0 SW 22 30 12 16 1016.3 - 0.0
27/11:09am 16.3 13.3 12.7 79 2.0 SW 20 32 11 17 1016.7 - 0.0
27/11:00am 16.3 13.1 13.0 81 1.8 SW 22 30 12 16 1016.6 1016.6 0.0
27/10:30am 15.8 12.5 12.7 82 1.7 SSW 22 32 12 17 1017.1 - 0.0
27/10:22am 15.9 12.3 13.2 84 1.5 SSW 24 32 13 17 1017.1 - 0.0
27/10:00am 15.7 12.6 13.5 87 1.2 SSW 22 35 12 19 1017.2 1017.2 0.0
27/09:30am 15.4 12.4 13.8 90 0.9 SSW 22 28 12 15 1017.2 - 0.0
27/09:04am 15.2 12.5 13.6 90 0.9 SW 20 30 11 16 1017.0 - 0.0
27/09:00am 15.2 12.6 13.9 92 0.7 SW 20 28 11 15 1016.9 1016.9 7.2
27/08:30am 14.3 11.7 13.8 97 0.3 SW 20 28 11 15 1017.2 - 7.2
27/08:00am 14.1 11.5 13.8 98 0.2 SW 20 28 11 15 1016.9 1016.9 7.2
27/07:30am 14.0 11.6 13.7 98 0.2 SW 19 26 10 14 1016.8 - 7.0
27/07:00am 14.0 11.3 13.5 97 0.3 SW 20 28 11 15 1016.6 1016.6 7.0
27/06:30am 14.0 11.5 13.4 96 0.3 SW 19 24 10 13 1016.3 - 7.0
27/06:00am 13.9 11.7 13.3 96 0.3 WSW 17 24 9 13 1016.0 1016.0 7.0
27/05:30am 14.0 12.3 13.5 97 0.3 WSW 15 22 8 12 1015.7 - 7.0
27/05:00am 14.1 12.0 13.5 96 0.3 WSW 17 24 9 13 1015.6 1015.6 6.8
27/04:30am 14.2 12.0 13.4 95 0.4 WSW 17 20 9 11 1015.6 - 6.6
27/04:00am 14.2 12.4 13.4 95 0.4 WSW 15 22 8 12 1015.6 1015.6 6.6
27/03:30am 14.2 12.5 13.6 96 0.3 WSW 15 22 8 12 1015.4 - 6.6
27/03:00am 14.1 12.0 13.6 97 0.3 WSW 17 20 9 11 1015.3 1015.3 6.6
27/02:30am 14.0 12.3 13.7 98 0.2 WSW 15 20 8 11 1015.6 - 6.6
27/02:00am 14.1 12.5 13.9 99 0.1 SW 15 20 8 11 1016.0 1016.0 6.6
27/01:33am 14.2 13.4 13.9 98 0.2 SSW 11 13 6 7 1016.5 - 6.4
27/01:30am 14.2 13.4 13.9 98 0.2 SSW 11 15 6 8 1016.5 - 6.4
27/01:18am 14.2 13.0 13.9 98 0.2 SW 13 19 7 10 1016.6 - 6.0
27/01:04am 14.2 12.5 13.7 97 0.3 SW 15 20 8 11 1016.7 - 5.4
27/01:00am 14.1 12.4 13.6 97 0.3 SW 15 20 8 11 1016.7 1016.7 5.4
27/12:30am 14.1 13.1 13.5 96 0.3 SW 11 17 6 9 1016.9 - 5.4
27/12:14am 14.2 12.8 13.4 95 0.4 SSW 13 19 7 10 1017.1 - 5.4
27/12:00am 14.2 12.7 13.2 94 0.6 WSW 13 19 7 10 1017.0 1017.0 5.4
 
Date/Time
EST
Temp
°C
App
Temp
°C
Dew
Point
Rel
Hum
%
Delta-T
°C
Wind Press
QNH
hPa
Press
MSL
hPa
Rain
since 9 am
mm
Dir
 
Spd
km/h
Gust
km/h
Spd
kts
Gust
kts
26/11:30pm 14.7 14.5 13.1 90 0.9 S 6 9 3 5 1017.3 - 4.8
26/11:17pm 14.9 14.2 13.1 89 1.0 SSW 9 15 5 8 1017.3 - 4.8
26/11:00pm 14.6 13.3 12.6 88 1.1 SW 11 19 6 10 1017.2 1017.2 4.8
26/10:47pm 14.6 13.8 13.0 90 0.9 SW 9 15 5 8 1017.3 - 4.8
26/10:30pm 13.8 14.4 13.0 95 0.4 S 2 6 1 3 1017.4 - 4.8
26/10:08pm 13.3 14.0 12.2 93 0.6 CALM 0 0 0 0 1017.3 - 4.8
26/10:00pm 13.4 14.1 12.3 93 0.6 CALM 0 0 0 0 1017.4 1017.4 4.8
26/09:30pm 13.8 14.5 12.2 90 0.9 CALM 0 6 0 3 1017.7 - 4.8
26/09:00pm 15.1 13.2 13.0 87 1.2 SSW 15 20 8 11 1017.8 1017.8 4.8
26/08:30pm 14.3 13.9 12.5 89 1.0 SSE 6 9 3 5 1017.8 - 4.8
26/08:00pm 14.5 14.1 12.9 90 0.9 SE 7 9 4 5 1017.8 1017.8 4.8
26/07:30pm 15.0 14.6 12.9 87 1.2 S 7 9 4 5 1017.7 - 4.8
26/07:00pm 15.1 14.3 13.0 87 1.2 S 9 13 5 7 1017.7 1017.7 4.8
26/06:30pm 15.7 15.1 13.4 86 1.3 S 9 11 5 6 1017.4 - 4.8
26/06:00pm 16.2 15.2 13.3 83 1.6 S 11 15 6 8 1017.1 1017.1 4.8
26/05:30pm 17.2 15.5 13.5 79 2.1 S 15 19 8 10 1016.8 - 4.8
26/05:00pm 17.7 16.0 13.6 77 2.3 S 15 19 8 10 1016.6 1016.6 4.8
26/04:30pm 17.7 15.7 13.8 78 2.2 S 17 22 9 12 1016.3 - 4.8
26/04:00pm 18.2 15.4 14.3 78 2.2 SSE 22 28 12 15 1016.0 1016.0 4.8
26/03:30pm 18.4 16.2 14.5 78 2.3 SSE 19 28 10 15 1015.9 - 4.8
26/03:00pm 18.5 19.8 17.2 92 0.8 ESE 6 7 3 4 1016.0 1016.0 4.8
26/02:30pm 17.1 17.5 16.3 95 0.5 WSW 9 11 5 6 1016.1 - 4.8
26/02:00pm 16.7 16.0 16.4 98 0.2 WSW 15 20 8 11 1016.4 1016.4 4.8
26/01:48pm 16.8 14.6 16.0 95 0.5 WSW 22 28 12 15 1016.5 - 4.8
26/01:30pm 16.6 15.3 14.8 89 1.0 S 15 30 8 16 1016.7 - 3.4
26/01:28pm 16.7 15.8 14.9 89 1.0 S 13 30 7 16 1016.7 - 3.0
26/01:00pm 17.8 16.6 15.1 84 1.6 SSE 15 22 8 12 1016.9 1016.9 0.0
26/12:30pm 19.3 18.5 15.0 76 2.5 SSE 13 20 7 11 1017.2 - 0.0
26/12:00pm 18.3 17.3 15.7 85 1.5 S 15 20 8 11 1017.7 1017.7 0.0
26/11:43am 18.0 15.5 14.1 78 2.2 S 20 30 11 16 1018.1 - 0.0
26/11:30am 19.9 18.4 13.1 65 3.9 SSW 13 30 7 16 1018.1 - 0.0
26/11:25am 20.3 19.4 12.5 61 4.4 SW 9 20 5 11 1018.1 - 0.0
26/11:00am 19.5 18.8 13.2 67 3.6 S 9 15 5 8 1018.6 1018.6 0.0
26/10:55am 19.3 19.3 13.5 69 3.3 S 6 15 3 8 1018.7 - 0.0
26/10:30am 18.6 18.1 13.7 73 2.8 WSW 9 19 5 10 1019.2 - 0.0
26/10:05am 17.8 16.4 13.5 76 2.4 WSW 13 17 7 9 1019.2 - 0.0
26/10:00am 17.7 16.6 13.0 74 2.6 W 11 17 6 9 1019.1 1019.1 0.0
26/09:30am 16.7 15.5 12.8 78 2.2 WSW 11 17 6 9 1019.4 - 0.0
26/09:00am 15.5 15.2 12.6 83 1.6 WNW 6 9 3 5 1019.5 1019.5 0.0
26/08:30am 14.6 14.1 12.5 87 1.1 S 7 11 4 6 1019.6 - 0.0
26/08:07am 14.1 13.0 11.8 86 1.2 S 9 15 5 8 1019.6 - 0.0
26/08:00am 14.1 12.2 11.8 86 1.2 S 13 17 7 9 1019.5 1019.5 0.0
26/07:30am 13.7 11.7 11.4 86 1.2 S 13 19 7 10 1019.5 - 0.0
26/07:13am 13.8 11.7 11.3 85 1.3 S 13 19 7 10 1019.4 - 0.0
26/07:00am 13.5 11.4 11.0 85 1.3 SW 13 17 7 9 1019.2 1019.2 0.0
26/06:30am 13.0 11.2 10.7 86 1.2 SSW 11 17 6 9 1018.9 - 0.0
26/06:00am 12.7 11.7 10.9 89 0.9 S 7 9 4 5 1018.7 1018.7 0.0
26/05:30am 12.8 11.7 10.7 87 1.1 SE 7 9 4 5 1018.2 - 0.0
26/05:16am 13.6 11.0 10.8 83 1.5 SSW 15 22 8 12 1018.0 - 0.0
26/05:03am 13.4 10.8 10.8 84 1.4 SW 15 24 8 13 1017.8 - 0.0
26/05:00am 13.3 11.5 10.8 85 1.3 SSW 11 24 6 13 1017.7 1017.7 0.0
26/04:30am 13.7 12.8 11.4 86 1.2 S 7 13 4 7 1017.7 - 0.0
26/04:00am 13.8 13.1 11.3 85 1.3 S 6 15 3 8 1017.6 1017.6 0.0
26/03:30am 13.1 13.5 11.3 89 1.0 CALM 0 0 0 0 1017.7 - 0.0
26/03:00am 13.6 13.7 11.5 87 1.1 SSE 2 7 1 4 1018.1 1018.1 0.0
26/02:30am 14.2 12.2 11.4 83 1.5 S 13 20 7 11 1018.3 - 0.0
26/02:00am 13.7 12.4 11.4 86 1.2 S 9 17 5 9 1018.6 1018.6 0.0
26/01:30am 12.4 12.7 11.0 91 0.7 CALM 0 0 0 0 1018.8 - 0.0
26/01:00am 13.2 13.3 11.6 90 0.8 SSE 2 6 1 3 1019.1 1019.1 0.0
26/12:30am 13.9 12.8 11.8 87 1.1 S 9 19 5 10 1019.5 - 0.0
26/12:00am 14.0 12.1 11.7 86 1.2 SSW 13 17 7 9 1019.8 1019.8 0.0
 
Date/Time
EST
Temp
°C
App
Temp
°C
Dew
Point
Rel
Hum
%
Delta-T
°C
Wind Press
QNH
hPa
Press
MSL
hPa
Rain
since 9 am
mm
Dir
 
Spd
km/h
Gust
km/h
Spd
kts
Gust
kts
25/11:30pm 14.3 12.0 11.8 85 1.3 SSW 15 20 8 11 1019.8 - 0.0
25/11:00pm 14.6 11.6 11.9 84 1.5 SW 19 28 10 15 1020.0 1020.0 0.0
25/10:30pm 14.3 12.5 12.0 86 1.2 SW 13 20 7 11 1020.1 - 0.0
25/10:00pm 13.8 13.4 12.4 91 0.8 S 6 13 3 7 1020.3 1020.3 0.0
25/09:30pm 13.9 13.4 12.6 92 0.7 SSE 7 9 4 5 1020.6 - 0.0
25/09:00pm 13.9 13.0 12.5 91 0.8 S 9 9 5 5 1020.7 1020.7 0.0
25/08:30pm 14.3 13.8 12.7 90 0.9 SSE 7 9 4 5 1020.7 - 0.0
25/08:00pm 14.3 13.8 12.7 90 0.9 S 7 9 4 5 1020.7 1020.7 0.0
25/07:30pm 14.1 13.7 12.5 90 0.9 S 6 7 3 4 1020.7 - 0.0
25/07:00pm 14.8 14.5 12.7 87 1.1 S 6 9 3 5 1020.6 1020.6 0.0
25/06:30pm 15.3 14.4 12.6 84 1.5 S 9 11 5 6 1020.3 - 0.0
25/06:00pm 15.5 14.6 12.6 83 1.6 S 9 11 5 6 1020.0 1020.0 0.0
25/05:30pm 16.3 14.6 12.5 78 2.1 S 13 17 7 9 1019.9 - 0.0
25/05:00pm 17.8 15.9 11.8 68 3.3 SSE 13 19 7 10 1019.7 1019.7 0.0
25/04:30pm 18.5 15.9 12.0 66 3.6 SE 17 28 9 15 1019.6 - 0.0
25/04:00pm 18.7 14.5 11.0 61 4.2 SE 24 32 13 17 1019.6 1019.6 0.0
25/03:30pm 19.9 15.7 11.1 57 4.8 SSE 24 33 13 18 1019.5 - 0.0
25/03:00pm 20.2 16.9 11.7 58 4.7 S 20 26 11 14 1019.4 1019.4 0.0
25/02:30pm 20.6 17.3 11.0 54 5.3 S 19 30 10 16 1019.5 - 0.0
25/02:00pm 20.1 15.9 11.1 56 4.9 SSE 24 35 13 19 1019.7 1019.7 0.0
25/01:30pm 20.6 17.3 12.8 61 4.4 SSE 22 32 12 17 1019.8 - 0.0
25/01:00pm 19.1 16.0 13.3 69 3.3 S 22 33 12 18 1020.2 1020.2 0.0
25/12:30pm 20.4 17.7 13.4 64 4.0 S 20 32 11 17 1020.3 - 0.0
25/12:00pm 20.3 16.9 12.5 61 4.4 S 22 32 12 17 1020.8 1020.8 0.0
25/11:30am 20.2 17.5 13.4 65 3.9 S 20 32 11 17 1021.4 - 0.0
25/11:00am 18.8 16.4 14.5 76 2.5 S 20 28 11 15 1022.0 1022.0 0.0
25/10:30am 18.9 16.5 14.4 75 2.6 S 20 26 11 14 1022.5 - 0.0
25/10:00am 18.1 16.1 13.8 76 2.4 S 17 22 9 12 1022.8 1022.8 0.0
25/09:30am 17.3 15.3 13.8 80 2.0 SSW 17 24 9 13 1023.0 - 0.0
25/09:09am 16.9 14.5 13.8 82 1.8 S 19 26 10 14 1023.1 - 0.0
25/09:00am 16.7 14.4 14.0 84 1.5 S 19 24 10 13 1023.1 1023.1 2.0
25/08:46am 16.1 14.5 13.9 87 1.2 S 15 19 8 10 1023.1 - 2.0
25/08:30am 15.3 13.6 13.7 90 0.9 S 15 20 8 11 1023.1 - 2.0
25/08:00am 14.5 13.4 13.2 92 0.7 S 11 20 6 11 1023.0 1023.0 2.0
25/07:30am 13.8 13.1 13.2 96 0.3 S 9 13 5 7 1022.9 - 2.0
25/07:25am 13.6 12.8 12.8 95 0.4 S 9 13 5 7 1022.9 - 2.0
25/07:00am 13.4 12.1 12.5 94 0.5 S 11 24 6 13 1022.7 1022.7 2.0
25/06:53am 13.5 11.8 12.4 93 0.6 S 13 24 7 13 1022.7 - 2.0

Other Formats:

Comma delimited format used in spreadsheet applications
http://www.bom.gov.au/fwo/IDN60801/IDN60801.94572.axf

JavaScript Object Notation format (JSON) in row-major order
http://www.bom.gov.au/fwo/IDN60801/IDN60801.94572.json